Time;durP1;ratioP1;P1;durP2;ratioP2;P2;SDS_P1;SDS_P2;PMS_P1;PMS_P2;Temp;Humidity;BMP_temperature;BMP_pressure;BME280_temperature;BME280_humidity;BME280_pressure;Samples;Min_cycle;Max_cycle;Signal;HPM_P1;HPM_P2
2022/05/05 00:01:44;;;;;;;;;;;24.60;37.50;;;;;;5051446;28;19925;-72
2022/05/05 00:04:12;;;;;;;;;;;24.60;37.50;;;;;;5050446;28;19940;-72
2022/05/05 00:06:39;;;;;;;;;;;24.60;37.50;;;;;;5051161;28;20116;-72
2022/05/05 00:09:06;;;;;;;;;;;24.60;37.50;;;;;;5050922;28;19925;-71
2022/05/05 00:14:23;;;;;;;;;;;24.60;37.60;;;;;;5049901;28;20373;-71
2022/05/05 00:16:51;;;;;;;;;;;24.60;37.60;;;;;;5050743;28;19971;-71
2022/05/05 00:19:18;;;;;;;;;;;24.60;37.60;;;;;;5050614;28;20145;-71
2022/05/05 00:21:45;;;;;;;;;;;24.60;37.60;;;;;;5046528;28;19928;-71
2022/05/05 00:24:12;;;;;;;;;;;24.60;37.60;;;;;;5050725;28;19925;-71
2022/05/05 00:26:39;;;;;;;;;;;24.60;37.60;;;;;;5049242;28;19928;-72
2022/05/05 00:29:06;;;;;;;;;;;24.60;37.60;;;;;;5049704;28;19924;-71
2022/05/05 00:31:34;;;;;;;;;;;24.60;37.60;;;;;;5050179;28;19925;-71
2022/05/05 00:34:01;;;;;;;;;;;24.60;37.60;;;;;;5050370;28;19925;-71
2022/05/05 00:36:28;;;;;;;;;;;24.60;37.60;;;;;;5050724;28;20010;-71
2022/05/05 00:38:55;;;;;;;;;;;24.60;37.60;;;;;;5050186;28;19928;-71
2022/05/05 00:41:22;;;;;;;;;;;24.60;37.60;;;;;;5050525;28;20201;-71
2022/05/05 00:43:49;;;;;;;;;;;24.60;37.60;;;;;;5050732;28;19951;-71
2022/05/05 00:46:16;;;;;;;;;;;24.60;37.60;;;;;;5032368;28;19925;-71
2022/05/05 00:48:44;;;;;;;;;;;24.50;37.60;;;;;;5050406;28;19932;-71
2022/05/05 00:51:11;;;;;;;;;;;24.50;37.60;;;;;;5049997;28;19982;-71
2022/05/05 00:53:38;;;;;;;;;;;24.50;37.60;;;;;;5045192;28;19936;-71
2022/05/05 00:56:07;;;;;;;;;;;24.50;37.60;;;;;;5048667;28;19979;-71
2022/05/05 00:58:34;;;;;;;;;;;24.50;37.60;;;;;;5049234;28;19932;-71
2022/05/05 01:01:04;;;;;;;;;;;24.50;37.60;;;;;;5048732;28;20000;-72
2022/05/05 01:03:34;;;;;;;;;;;24.50;37.60;;;;;;5047330;28;19925;-71
2022/05/05 01:06:08;;;;;;;;;;;24.50;37.60;;;;;;5049045;28;19925;-71
2022/05/05 01:08:36;;;;;;;;;;;24.50;37.60;;;;;;5048674;28;19936;-71
2022/05/05 01:11:03;;;;;;;;;;;24.50;37.60;;;;;;5048928;28;20243;-71
2022/05/05 01:13:31;;;;;;;;;;;24.50;38.20;;;;;;5048941;28;20236;-71
2022/05/05 01:15:59;;;;;;;;;;;24.50;37.60;;;;;;5048396;28;19928;-71
2022/05/05 01:18:26;;;;;;;;;;;24.50;37.60;;;;;;5048872;28;20200;-71
2022/05/05 01:20:54;;;;;;;;;;;24.50;37.60;;;;;;5048667;28;19924;-71
2022/05/05 01:23:21;;;;;;;;;;;24.50;37.60;;;;;;5047258;28;19936;-71
2022/05/05 01:28:39;;;;;;;;;;;24.50;37.60;;;;;;5051822;28;19929;-71
2022/05/05 01:31:07;;;;;;;;;;;24.50;37.70;;;;;;5053038;28;19928;-71
2022/05/05 01:33:35;;;;;;;;;;;24.50;37.70;;;;;;5052548;28;19925;-71
2022/05/05 01:36:03;;;;;;;;;;;24.50;37.70;;;;;;5052471;28;19925;-71
2022/05/05 01:38:37;;;;;;;;;;;24.50;37.80;;;;;;5068049;28;19975;-71
2022/05/05 01:41:05;;;;;;;;;;;24.50;37.80;;;;;;5052006;28;20180;-71
2022/05/05 01:43:32;;;;;;;;;;;24.50;37.90;;;;;;5052911;28;20006;-71
2022/05/05 01:46:00;;;;;;;;;;;24.40;37.80;;;;;;5051171;28;19933;-71
2022/05/05 01:48:28;;;;;;;;;;;24.40;37.80;;;;;;5052585;28;19936;-71
2022/05/05 01:50:55;;;;;;;;;;;24.40;37.80;;;;;;5052032;28;19924;-71
2022/05/05 01:53:22;;;;;;;;;;;24.40;37.90;;;;;;5052831;28;20279;-71
2022/05/05 01:55:49;;;;;;;;;;;24.40;37.90;;;;;;5047740;28;20143;-67
2022/05/05 01:58:16;;;;;;;;;;;24.40;37.90;;;;;;5052115;28;19928;-72
2022/05/05 02:00:43;;;;;;;;;;;24.40;37.90;;;;;;5052397;28;20274;-72
2022/05/05 02:03:13;;;;;;;;;;;24.40;37.90;;;;;;5052083;28;19929;-72
2022/05/05 02:05:41;;;;;;;;;;;24.40;37.90;;;;;;5051963;28;19972;-71
2022/05/05 02:08:09;;;;;;;;;;;24.40;37.90;;;;;;5051920;28;19998;-71
2022/05/05 02:10:36;;;;;;;;;;;24.40;37.90;;;;;;5050520;28;19979;-71
2022/05/05 02:13:04;;;;;;;;;;;24.40;37.90;;;;;;5052053;28;19948;-67
2022/05/05 02:15:32;;;;;;;;;;;24.40;37.90;;;;;;5052409;28;19925;-71
2022/05/05 02:18:05;;;;;;;;;;;24.40;37.90;;;;;;5052275;28;20248;-71
2022/05/05 02:20:32;;;;;;;;;;;24.40;37.80;;;;;;5051752;28;19925;-71
2022/05/05 02:22:59;;;;;;;;;;;24.40;37.80;;;;;;5051784;28;19940;-71
2022/05/05 02:25:26;;;;;;;;;;;24.40;37.80;;;;;;5050781;28;19940;-71
2022/05/05 02:27:53;;;;;;;;;;;24.40;37.80;;;;;;5047178;28;20180;-71
2022/05/05 02:30:22;;;;;;;;;;;24.40;37.80;;;;;;5051354;28;19925;-71
2022/05/05 02:32:49;;;;;;;;;;;24.40;37.80;;;;;;5051137;28;20389;-71
2022/05/05 02:35:18;;;;;;;;;;;24.40;37.80;;;;;;5051796;28;19928;-71
2022/05/05 02:40:32;;;;;;;;;;;24.40;37.80;;;;;;5051268;28;19965;-71
2022/05/05 02:42:59;;;;;;;;;;;24.40;37.80;;;;;;5051126;28;19924;-72
2022/05/05 02:45:27;;;;;;;;;;;24.40;37.80;;;;;;5050811;28;20455;-71
2022/05/05 02:47:54;;;;;;;;;;;24.40;37.80;;;;;;5051356;28;19971;-71
2022/05/05 02:50:21;;;;;;;;;;;24.40;37.80;;;;;;5051294;28;20557;-71
2022/05/05 02:52:48;;;;;;;;;;;24.40;37.80;;;;;;5050719;28;20272;-71
2022/05/05 02:55:15;;;;;;;;;;;24.40;37.80;;;;;;5049873;28;20166;-72
2022/05/05 02:57:42;;;;;;;;;;;24.40;37.90;;;;;;5051082;28;20389;-71
2022/05/05 03:00:13;;;;;;;;;;;24.40;37.90;;;;;;5046566;28;20221;-72
2022/05/05 03:02:41;;;;;;;;;;;24.40;37.90;;;;;;5051254;28;19928;-72
2022/05/05 03:05:09;;;;;;;;;;;24.40;37.90;;;;;;5050848;28;19935;-72
2022/05/05 03:07:36;;;;;;;;;;;24.40;37.90;;;;;;5051391;28;20385;-71
2022/05/05 03:10:04;;;;;;;;;;;24.30;38.40;;;;;;5051045;28;19971;-71
2022/05/05 03:12:31;;;;;;;;;;;24.30;37.90;;;;;;5050749;28;20143;-71
2022/05/05 03:14:58;;;;;;;;;;;24.30;38.00;;;;;;5050377;28;19925;-71
2022/05/05 03:17:25;;;;;;;;;;;24.30;38.00;;;;;;5050857;28;19925;-71
2022/05/05 03:19:52;;;;;;;;;;;24.30;38.00;;;;;;5050656;28;20419;-71
2022/05/05 03:22:20;;;;;;;;;;;24.30;38.00;;;;;;5050452;28;20153;-71
2022/05/05 03:24:47;;;;;;;;;;;24.30;38.10;;;;;;5050692;28;20059;-72
2022/05/05 03:27:14;;;;;;;;;;;24.30;38.10;;;;;;5047222;28;19975;-72
2022/05/05 03:29:41;;;;;;;;;;;24.20;38.10;;;;;;5045868;28;20248;-71
2022/05/05 03:32:08;;;;;;;;;;;24.20;38.10;;;;;;5042554;28;20160;-71
2022/05/05 03:34:35;;;;;;;;;;;24.20;38.10;;;;;;5036047;28;19987;-71
2022/05/05 03:37:02;;;;;;;;;;;24.20;38.10;;;;;;5055440;28;19924;-71
2022/05/05 03:39:29;;;;;;;;;;;24.20;38.10;;;;;;5054898;28;19935;-71
2022/05/05 03:41:56;;;;;;;;;;;24.20;38.70;;;;;;5034722;28;19929;-71
2022/05/05 03:44:23;;;;;;;;;;;24.30;38.20;;;;;;5050433;28;19947;-71
2022/05/05 03:46:50;;;;;;;;;;;24.30;38.10;;;;;;5031449;28;19936;-71
2022/05/05 03:49:17;;;;;;;;;;;24.30;38.10;;;;;;5034276;28;20016;-71
2022/05/05 03:51:45;;;;;;;;;;;24.30;38.00;;;;;;5047578;28;19991;-71
2022/05/05 03:54:12;;;;;;;;;;;24.30;38.00;;;;;;5027223;28;19931;-72
2022/05/05 03:56:39;;;;;;;;;;;24.30;38.00;;;;;;5050199;28;19929;-71
2022/05/05 03:59:06;;;;;;;;;;;24.30;37.90;;;;;;5049782;28;19983;-72
2022/05/05 04:01:33;;;;;;;;;;;24.30;37.90;;;;;;5050276;28;20273;-72
2022/05/05 04:04:00;;;;;;;;;;;24.30;37.90;;;;;;5045521;28;19943;-72
2022/05/05 04:06:27;;;;;;;;;;;24.30;37.90;;;;;;5048995;28;19983;-71
2022/05/05 04:08:54;;;;;;;;;;;24.30;37.90;;;;;;5049516;28;19924;-71
2022/05/05 04:11:21;;;;;;;;;;;24.30;37.90;;;;;;5049402;28;19933;-71
2022/05/05 04:13:48;;;;;;;;;;;24.30;37.90;;;;;;5049851;28;20490;-71
2022/05/05 04:16:15;;;;;;;;;;;24.30;37.90;;;;;;5049658;28;19947;-71
2022/05/05 04:18:44;;;;;;;;;;;24.40;37.90;;;;;;5049242;28;19924;-72
2022/05/05 04:21:11;;;;;;;;;;;24.40;37.90;;;;;;5049196;28;20380;-72
2022/05/05 04:23:38;;;;;;;;;;;24.40;37.90;;;;;;5049125;28;20494;-71
2022/05/05 04:26:12;;;;;;;;;;;24.40;37.80;;;;;;5031867;28;19956;-71
2022/05/05 04:28:40;;;;;;;;;;;24.40;37.80;;;;;;5049132;28;19924;-71
2022/05/05 04:31:09;;;;;;;;;;;24.40;37.80;;;;;;5049003;28;20294;-71
2022/05/05 04:33:37;;;;;;;;;;;24.40;37.70;;;;;;5047150;28;19925;-72
2022/05/05 04:36:04;;;;;;;;;;;24.50;37.80;;;;;;5046202;28;19929;-71
2022/05/05 04:38:31;;;;;;;;;;;24.50;37.70;;;;;;5041100;28;20380;-71
2022/05/05 04:40:58;;;;;;;;;;;24.50;37.70;;;;;;5029183;28;19925;-71
2022/05/05 04:43:25;;;;;;;;;;;24.50;37.70;;;;;;5029294;28;20222;-72
2022/05/05 04:45:52;;;;;;;;;;;24.50;37.60;;;;;;5039563;28;19925;-71
2022/05/05 04:48:19;;;;;;;;;;;24.50;37.60;;;;;;5048677;28;19925;-71
2022/05/05 04:50:46;;;;;;;;;;;24.50;37.60;;;;;;5048738;28;20028;-71
2022/05/05 04:56:21;;;;;;;;;;;24.50;37.60;;;;;;5050864;28;19971;-67
2022/05/05 04:58:48;;;;;;;;;;;24.60;37.60;;;;;;5037216;28;19956;-71
2022/05/05 05:01:15;;;;;;;;;;;24.60;37.60;;;;;;5056890;28;19925;-67
2022/05/05 05:03:42;;;;;;;;;;;24.60;37.60;;;;;;5056193;28;19925;-67
2022/05/05 05:06:09;;;;;;;;;;;24.60;37.60;;;;;;5052303;28;19925;-67
2022/05/05 05:15:34;;;;;;;;;;;24.70;37.40;;;;;;5034564;28;19983;-71
2022/05/05 05:18:01;;;;;;;;;;;24.80;37.40;;;;;;5033391;28;19921;-69
2022/05/05 05:20:28;;;;;;;;;;;24.80;37.40;;;;;;5045524;28;19924;-71
2022/05/05 05:23:10;;;;;;;;;;;24.80;37.30;;;;;;5070422;28;19920;-70
2022/05/05 05:40:03;;;;;;;;;;;25.00;38.10;;;;;;5045303;28;19923;-73
2022/05/05 05:43:01;;;;;;;;;;;25.00;38.20;;;;;;5052121;28;19928;-71
2022/05/05 05:46:11;;;;;;;;;;;25.00;38.60;;;;;;5054594;28;19924;-69
2022/05/05 05:48:39;;;;;;;;;;;25.10;38.00;;;;;;5063193;28;19932;-76
2022/05/05 05:56:59;;;;;;;;;;;25.20;37.90;;;;;;5079704;28;19919;-72
2022/05/05 05:59:26;;;;;;;;;;;25.20;37.80;;;;;;5079279;28;19924;-74
2022/05/05 06:08:25;;;;;;;;;;;25.40;37.50;;;;;;6059398;22;20325;-72
2022/05/05 06:10:52;;;;;;;;;;;25.40;37.30;;;;;;5075140;28;19925;-72
2022/05/05 06:16:43;;;;;;;;;;;25.40;37.30;;;;;;5084732;28;19958;-70
2022/05/05 06:26:17;;;;;;;;;;;25.60;37.90;;;;;;5100312;28;19966;-69
2022/05/05 06:29:20;;;;;;;;;;;25.60;37.80;;;;;;5098089;28;19927;-69
2022/05/05 06:35:51;;;;;;;;;;;25.70;37.60;;;;;;5913769;23;19920;-69
2022/05/05 06:38:18;;;;;;;;;;;25.80;37.60;;;;;;5122625;27;19924;-68
2022/05/05 06:40:46;;;;;;;;;;;25.90;37.60;;;;;;5139539;27;19930;-69
2022/05/05 06:43:13;;;;;;;;;;;25.90;37.60;;;;;;5139462;27;19924;-78
2022/05/05 06:45:39;;;;;;;;;;;26.00;37.60;;;;;;5140697;27;20330;-69
2022/05/05 06:48:07;;;;;;;;;;;26.00;37.40;;;;;;5140802;27;19930;-78
2022/05/05 06:54:16;;;;;;;;;;;26.10;37.20;;;;;;5128880;27;19928;-70
2022/05/05 07:03:36;;;;;;;;;;;26.20;37.10;;;;;;5131848;27;20008;-68
2022/05/05 07:06:10;;;;;;;;;;;26.30;37.20;;;;;;5119867;22;19990;-69
2022/05/05 07:11:25;;;;;;;;;;;26.40;37.20;;;;;;5102680;28;19928;-71
2022/05/05 07:13:52;;;;;;;;;;;26.40;37.30;;;;;;5086388;28;19924;-66
2022/05/05 07:20:12;;;;;;;;;;;26.50;37.40;;;;;;5085465;28;20383;-64
2022/05/05 07:22:40;;;;;;;;;;;26.50;37.30;;;;;;5086405;28;19939;-66
2022/05/05 07:25:07;;;;;;;;;;;26.50;37.10;;;;;;5095800;28;19924;-67
2022/05/05 07:27:34;;;;;;;;;;;26.60;37.10;;;;;;5116560;22;19940;-67
2022/05/05 07:30:02;;;;;;;;;;;26.60;37.10;;;;;;5118370;28;19927;-67
2022/05/05 07:32:29;;;;;;;;;;;26.60;37.10;;;;;;5122562;27;19919;-68
2022/05/05 07:42:31;;;;;;;;;;;26.70;36.90;;;;;;5125102;27;19914;-68
2022/05/05 07:44:58;;;;;;;;;;;26.70;36.80;;;;;;5139361;27;19923;-74
2022/05/05 07:48:00;;;;;;;;;;;26.80;36.80;;;;;;5133572;27;19924;-67
2022/05/05 07:51:00;;;;;;;;;;;26.80;36.80;;;;;;5123730;27;20299;-67
2022/05/05 07:53:27;;;;;;;;;;;26.90;36.70;;;;;;5121255;27;19928;-73
2022/05/05 07:55:54;;;;;;;;;;;26.90;36.60;;;;;;5139490;27;19935;-72
2022/05/05 07:58:21;;;;;;;;;;;26.90;36.60;;;;;;5138135;27;19930;-70
2022/05/05 08:00:48;;;;;;;;;;;27.00;36.40;;;;;;5138347;27;19924;-69
2022/05/05 08:07:18;;;;;;;;;;;27.00;36.20;;;;;;5118326;27;19920;-74
2022/05/05 08:09:45;;;;;;;;;;;27.00;36.10;;;;;;5118904;28;19928;-64
2022/05/05 08:12:28;;;;;;;;;;;27.10;36.20;;;;;;5120011;27;19927;-69
2022/05/05 08:14:56;;;;;;;;;;;27.10;36.10;;;;;;5120892;27;20416;-71
2022/05/05 08:17:23;;;;;;;;;;;27.10;36.10;;;;;;5139244;27;19924;-75
2022/05/05 08:20:12;;;;;;;;;;;27.20;35.90;;;;;;5136515;27;19923;-76
2022/05/05 08:29:23;;;;;;;;;;;27.30;35.70;;;;;;5080506;28;19920;-70
2022/05/05 08:31:50;;;;;;;;;;;27.30;35.70;;;;;;5082712;28;19950;-71
2022/05/05 08:34:17;;;;;;;;;;;27.30;35.60;;;;;;5076036;28;20015;-69
2022/05/05 08:36:44;;;;;;;;;;;27.40;36.10;;;;;;5076191;28;19924;-69
2022/05/05 08:49:47;;;;;;;;;;;27.50;35.40;;;;;;5069692;28;19927;-73
2022/05/05 09:02:11;;;;;;;;;;;27.60;35.30;;;;;;5079829;28;19978;-65
2022/05/05 09:04:42;;;;;;;;;;;27.60;34.40;;;;;;5086941;28;20015;-67
2022/05/05 09:07:09;;;;;;;;;;;27.60;33.50;;;;;;5080159;28;19927;-68
2022/05/05 09:09:36;;;;;;;;;;;27.60;32.90;;;;;;5087568;28;19920;-70
2022/05/05 09:21:46;;;;;;;;;;;27.70;33.00;;;;;;5068440;28;19946;-73
2022/05/05 09:30:22;;;;;;;;;;;27.60;32.40;;;;;;5060954;28;19946;-68
2022/05/05 09:32:49;;;;;;;;;;;27.70;32.10;;;;;;5073834;28;19944;-65
2022/05/05 09:48:53;;;;;;;;;;;27.90;32.10;;;;;;5111465;27;19963;-63
2022/05/05 09:51:21;;;;;;;;;;;27.90;32.30;;;;;;5141197;27;19945;-65
2022/05/05 09:59:30;;;;;;;;;;;28.00;33.80;;;;;;5141540;27;20370;-64
2022/05/05 10:02:07;;;;;;;;;;;28.00;34.10;;;;;;5140547;27;19995;-66
2022/05/05 10:04:36;;;;;;;;;;;28.00;33.90;;;;;;5139784;27;20010;-65
2022/05/05 10:07:15;;;;;;;;;;;27.90;34.10;;;;;;5134834;27;19923;-64
2022/05/05 10:09:43;;;;;;;;;;;27.70;34.20;;;;;;5133607;27;19943;-64
2022/05/05 10:15:33;;;;;;;;;;;27.20;34.00;;;;;;5130255;27;19918;-65
2022/05/05 10:18:20;;;;;;;;;;;26.70;34.40;;;;;;5140058;27;19977;-65
2022/05/05 10:24:34;;;;;;;;;;;26.00;35.30;;;;;;5135026;27;19964;-64
2022/05/05 10:27:02;;;;;;;;;;;25.60;36.80;;;;;;5139731;27;19952;-67
2022/05/05 10:29:43;;;;;;;;;;;25.20;37.50;;;;;;5139045;27;19927;-68
2022/05/05 10:32:20;;;;;;;;;;;24.90;37.90;;;;;;5133327;27;19931;-70
2022/05/05 10:34:54;;;;;;;;;;;24.60;38.20;;;;;;5126679;27;19927;-71
2022/05/05 10:41:14;;;;;;;;;;;24.10;39.00;;;;;;5121227;27;20052;-68
2022/05/05 10:47:14;;;;;;;;;;;23.60;40.20;;;;;;5132373;27;20048;-72
2022/05/05 10:49:42;;;;;;;;;;;23.50;40.70;;;;;;5137387;27;19931;-72
2022/05/05 10:58:57;;;;;;;;;;;23.20;42.00;;;;;;5495720;22;20399;-69
2022/05/05 11:01:56;;;;;;;;;;;23.10;42.40;;;;;;5076162;28;19974;-65
2022/05/05 11:08:20;;;;;;;;;;;23.00;41.80;;;;;;5076999;28;19927;-76
2022/05/05 11:13:38;;;;;;;;;;;22.80;41.00;;;;;;5060239;28;19954;-70
2022/05/05 11:22:05;;;;;;;;;;;23.70;40.10;;;;;;5055569;28;20483;-69
2022/05/05 11:24:32;;;;;;;;;;;24.10;39.50;;;;;;5060478;28;19940;-69
2022/05/05 11:26:59;;;;;;;;;;;24.50;38.90;;;;;;5044927;28;19928;-74
2022/05/05 11:29:30;;;;;;;;;;;24.80;38.20;;;;;;5056159;28;19928;-72
2022/05/05 11:31:58;;;;;;;;;;;25.10;37.80;;;;;;5056172;28;19963;-72
2022/05/05 11:34:32;;;;;;;;;;;25.40;37.20;;;;;;5054557;28;20473;-66
2022/05/05 11:37:00;;;;;;;;;;;25.70;36.70;;;;;;5062753;28;19928;-63
2022/05/05 11:39:28;;;;;;;;;;;25.90;36.10;;;;;;5053303;28;19962;-65
2022/05/05 11:41:56;;;;;;;;;;;26.10;35.30;;;;;;5055090;28;19932;-69
2022/05/05 11:44:25;;;;;;;;;;;26.30;35.00;;;;;;5057973;28;19940;-70
2022/05/05 11:46:53;;;;;;;;;;;26.40;34.70;;;;;;5055713;28;19986;-65
2022/05/05 11:49:20;;;;;;;;;;;26.60;34.50;;;;;;5057041;28;20085;-70
2022/05/05 11:51:48;;;;;;;;;;;26.70;34.30;;;;;;5054330;28;20408;-70
2022/05/05 11:54:23;;;;;;;;;;;26.80;33.90;;;;;;5055351;28;19932;-73
2022/05/05 11:56:53;;;;;;;;;;;26.90;33.80;;;;;;5053816;28;19932;-68
2022/05/05 12:02:12;;;;;;;;;;;27.00;33.50;;;;;;5064491;28;19994;-70
2022/05/05 12:07:57;;;;;;;;;;;27.20;33.30;;;;;;5057815;28;20331;-71
2022/05/05 12:10:32;;;;;;;;;;;27.30;33.30;;;;;;5055820;28;19979;-72
2022/05/05 12:13:03;;;;;;;;;;;27.30;32.80;;;;;;5057792;28;19978;-73
2022/05/05 12:15:32;;;;;;;;;;;27.40;32.90;;;;;;5056448;28;19932;-71
2022/05/05 12:17:59;;;;;;;;;;;27.50;32.50;;;;;;5057253;28;19925;-74
2022/05/05 12:20:28;;;;;;;;;;;27.50;32.60;;;;;;5069871;28;20347;-68
2022/05/05 12:22:57;;;;;;;;;;;27.60;32.70;;;;;;5076611;28;19990;-67
2022/05/05 12:25:25;;;;;;;;;;;27.60;32.20;;;;;;5067426;28;20034;-67
2022/05/05 12:31:21;;;;;;;;;;;27.70;32.40;;;;;;5072888;28;20025;-69
2022/05/05 12:33:49;;;;;;;;;;;27.70;32.00;;;;;;5068091;28;19928;-67
2022/05/05 12:36:17;;;;;;;;;;;27.80;31.90;;;;;;5061214;28;19924;-66
2022/05/05 12:38:44;;;;;;;;;;;27.80;31.70;;;;;;5071038;28;20384;-66
2022/05/05 12:44:43;;;;;;;;;;;27.90;31.60;;;;;;5077159;28;19922;-75
2022/05/05 12:47:13;;;;;;;;;;;27.90;31.50;;;;;;5071336;28;19954;-64
2022/05/05 12:49:44;;;;;;;;;;;28.00;31.60;;;;;;5071412;28;19929;-64
2022/05/05 13:05:15;;;;;;;;;;;28.00;31.50;;;;;;5076069;28;19924;-68
2022/05/05 13:07:42;;;;;;;;;;;27.50;32.10;;;;;;5075788;28;19921;-66
2022/05/05 13:10:09;;;;;;;;;;;26.90;32.90;;;;;;5075586;28;20034;-74
2022/05/05 13:12:36;;;;;;;;;;;26.40;33.80;;;;;;5075745;28;19925;-66
2022/05/05 13:15:04;;;;;;;;;;;25.80;34.40;;;;;;5068216;28;19931;-70
2022/05/05 13:17:31;;;;;;;;;;;25.40;35.30;;;;;;5061543;28;20292;-67
2022/05/05 13:19:58;;;;;;;;;;;25.00;36.00;;;;;;5074639;28;19920;-69
2022/05/05 13:29:25;;;;;;;;;;;24.10;37.90;;;;;;5081912;28;19927;-69
2022/05/05 13:31:52;;;;;;;;;;;23.90;38.50;;;;;;5076481;28;20314;-69
2022/05/05 13:34:19;;;;;;;;;;;23.80;39.00;;;;;;5081918;28;20372;-72
2022/05/05 13:36:46;;;;;;;;;;;23.70;39.30;;;;;;5082563;28;19925;-72
2022/05/05 13:39:14;;;;;;;;;;;23.60;39.50;;;;;;5079952;28;20329;-66
2022/05/05 13:41:41;;;;;;;;;;;23.50;39.70;;;;;;5071398;28;19925;-72
2022/05/05 13:44:09;;;;;;;;;;;23.50;39.00;;;;;;5075459;28;19994;-65
2022/05/05 13:46:36;;;;;;;;;;;23.40;38.80;;;;;;5072600;28;19928;-66
2022/05/05 13:52:36;;;;;;;;;;;23.30;39.40;;;;;;5078081;28;19974;-72
2022/05/05 13:55:04;;;;;;;;;;;23.60;38.80;;;;;;5080989;28;19924;-77
2022/05/05 13:57:31;;;;;;;;;;;24.00;38.40;;;;;;5075322;28;19920;-71
2022/05/05 13:59:58;;;;;;;;;;;24.40;37.80;;;;;;5076259;28;19966;-70
2022/05/05 14:02:38;;;;;;;;;;;24.80;37.20;;;;;;5078698;28;19928;-77
2022/05/05 14:12:11;;;;;;;;;;;25.90;35.50;;;;;;5077003;28;20319;-71
2022/05/05 14:14:38;;;;;;;;;;;26.10;34.90;;;;;;5073670;28;19974;-77
2022/05/05 14:17:05;;;;;;;;;;;26.30;34.70;;;;;;5073696;28;19925;-74
2022/05/05 14:23:07;;;;;;;;;;;26.60;34.10;;;;;;5076463;28;20388;-72
2022/05/05 14:25:37;;;;;;;;;;;26.90;33.90;;;;;;5078134;28;19920;-73
2022/05/05 14:28:04;;;;;;;;;;;26.90;33.70;;;;;;5072575;28;19920;-72
2022/05/05 14:30:31;;;;;;;;;;;27.00;33.40;;;;;;5075899;28;19932;-72
2022/05/05 14:32:58;;;;;;;;;;;27.10;33.20;;;;;;5071616;28;20418;-77
2022/05/05 14:35:25;;;;;;;;;;;27.20;33.20;;;;;;5072158;28;20490;-75
2022/05/05 14:37:53;;;;;;;;;;;27.20;32.90;;;;;;5072655;28;19920;-71
2022/05/05 14:40:20;;;;;;;;;;;27.30;32.80;;;;;;5075457;28;19932;-75
2022/05/05 14:42:47;;;;;;;;;;;27.40;32.70;;;;;;5081683;28;19924;-77
2022/05/05 14:45:18;;;;;;;;;;;27.40;32.50;;;;;;5079511;28;19924;-73
2022/05/05 14:51:08;;;;;;;;;;;27.50;32.10;;;;;;5065099;28;19970;-73
2022/05/05 14:53:35;;;;;;;;;;;27.50;31.90;;;;;;5069489;28;20625;-72
2022/05/05 14:56:03;;;;;;;;;;;27.60;31.90;;;;;;5071826;28;19967;-68
2022/05/05 14:58:30;;;;;;;;;;;27.60;31.90;;;;;;5068065;28;19986;-72
2022/05/05 15:04:19;;;;;;;;;;;27.60;31.70;;;;;;5052472;28;20964;-73
2022/05/05 15:06:48;;;;;;;;;;;27.60;31.90;;;;;;5051880;28;19982;-78
2022/05/05 15:09:15;;;;;;;;;;;27.60;32.00;;;;;;5065840;28;19932;-78
2022/05/05 15:11:42;;;;;;;;;;;27.70;32.10;;;;;;5064810;28;19978;-78
2022/05/05 15:14:09;;;;;;;;;;;27.70;32.30;;;;;;5069887;28;19925;-74
2022/05/05 15:16:36;;;;;;;;;;;27.70;32.40;;;;;;5068885;28;19932;-72
2022/05/05 15:19:03;;;;;;;;;;;27.70;32.60;;;;;;5066035;28;19978;-71
2022/05/05 15:21:30;;;;;;;;;;;27.70;32.70;;;;;;5064750;28;19947;-76
2022/05/05 15:23:58;;;;;;;;;;;27.70;32.80;;;;;;5081741;28;20015;-78
2022/05/05 15:26:26;;;;;;;;;;;27.70;33.00;;;;;;5063887;28;19925;-71
2022/05/05 15:28:57;;;;;;;;;;;27.70;33.30;;;;;;5075616;28;19928;-73
2022/05/05 15:31:24;;;;;;;;;;;27.70;33.60;;;;;;5064054;28;20348;-73
2022/05/05 15:33:51;;;;;;;;;;;27.70;33.60;;;;;;5072596;28;20442;-72
2022/05/05 15:36:18;;;;;;;;;;;27.70;33.40;;;;;;5065770;28;19928;-73
2022/05/05 15:38:47;;;;;;;;;;;27.70;33.10;;;;;;5063594;28;19950;-70
2022/05/05 15:41:14;;;;;;;;;;;27.70;33.30;;;;;;5065106;28;19924;-71
2022/05/05 15:43:41;;;;;;;;;;;27.70;33.60;;;;;;5071565;28;19924;-70
2022/05/05 15:46:09;;;;;;;;;;;27.60;33.80;;;;;;5065621;28;19993;-70
2022/05/05 15:48:41;;;;;;;;;;;27.60;34.80;;;;;;5068220;28;21743;-71
2022/05/05 15:51:08;;;;;;;;;;;27.50;34.50;;;;;;5062736;28;19977;-71
2022/05/05 15:53:35;;;;;;;;;;;27.40;33.70;;;;;;5077082;28;19924;-71
2022/05/05 15:56:02;;;;;;;;;;;27.20;33.70;;;;;;5070333;28;19925;-70
2022/05/05 15:58:29;;;;;;;;;;;27.00;33.80;;;;;;5069386;28;19925;-71
2022/05/05 16:00:57;;;;;;;;;;;26.80;34.00;;;;;;5067537;28;20309;-71
2022/05/05 16:03:24;;;;;;;;;;;26.60;34.00;;;;;;5069597;28;20228;-71
2022/05/05 16:05:55;;;;;;;;;;;26.50;34.10;;;;;;5067323;28;20286;-70
2022/05/05 16:08:22;;;;;;;;;;;26.50;34.10;;;;;;5068000;28;19928;-73
2022/05/05 16:10:49;;;;;;;;;;;26.60;34.20;;;;;;5064851;28;19924;-73
2022/05/05 16:13:16;;;;;;;;;;;26.60;34.10;;;;;;5070183;28;19986;-73
2022/05/05 16:15:44;;;;;;;;;;;26.80;34.10;;;;;;5066933;28;19929;-73
2022/05/05 16:18:11;;;;;;;;;;;26.90;33.90;;;;;;5068881;28;19924;-73
2022/05/05 16:20:38;;;;;;;;;;;26.90;33.80;;;;;;5067618;28;20125;-73
2022/05/05 16:23:05;;;;;;;;;;;27.00;33.80;;;;;;5069555;28;19928;-73
2022/05/05 16:31:05;;;;;;;;;;;27.20;33.90;;;;;;5066724;28;19989;-71
2022/05/05 16:33:33;;;;;;;;;;;27.20;34.00;;;;;;5068930;28;19930;-71
2022/05/05 16:36:01;;;;;;;;;;;27.30;34.10;;;;;;5069498;28;19978;-71
2022/05/05 16:38:30;;;;;;;;;;;27.30;34.00;;;;;;5069134;28;19925;-70
2022/05/05 16:40:57;;;;;;;;;;;27.20;34.00;;;;;;5065093;28;19979;-71
2022/05/05 16:43:24;;;;;;;;;;;27.30;34.10;;;;;;5064720;28;19928;-71
2022/05/05 16:45:51;;;;;;;;;;;27.30;34.10;;;;;;5068357;28;20301;-71
2022/05/05 16:48:18;;;;;;;;;;;27.20;34.00;;;;;;5069037;28;20159;-71
2022/05/05 16:50:45;;;;;;;;;;;27.30;34.20;;;;;;5068646;28;19935;-71
2022/05/05 16:53:14;;;;;;;;;;;27.30;34.10;;;;;;5069392;28;19933;-71
2022/05/05 16:55:41;;;;;;;;;;;27.20;34.10;;;;;;5065108;28;20167;-71
2022/05/05 16:58:08;;;;;;;;;;;27.30;34.20;;;;;;5067191;28;19928;-71
2022/05/05 17:00:36;;;;;;;;;;;27.20;34.20;;;;;;5068388;28;19974;-71
2022/05/05 17:03:03;;;;;;;;;;;27.20;34.30;;;;;;5068524;28;19970;-70
2022/05/05 17:05:30;;;;;;;;;;;27.20;34.40;;;;;;5065335;28;19971;-71
2022/05/05 17:07:57;;;;;;;;;;;27.20;34.50;;;;;;5065714;28;20221;-71
2022/05/05 17:10:25;;;;;;;;;;;27.20;34.50;;;;;;5068374;28;19958;-71
2022/05/05 17:12:52;;;;;;;;;;;27.10;34.60;;;;;;5068166;28;19932;-71
2022/05/05 17:15:21;;;;;;;;;;;27.10;34.80;;;;;;5062413;28;19984;-71
2022/05/05 17:17:50;;;;;;;;;;;27.10;34.80;;;;;;5069221;28;19939;-71
2022/05/05 17:20:18;;;;;;;;;;;27.10;34.90;;;;;;5067773;28;19951;-71
2022/05/05 17:22:46;;;;;;;;;;;27.10;35.00;;;;;;5066606;28;19929;-71
2022/05/05 17:25:13;;;;;;;;;;;27.00;34.90;;;;;;5069019;28;19935;-71
2022/05/05 17:27:41;;;;;;;;;;;27.00;35.00;;;;;;5067413;28;19932;-71
2022/05/05 17:30:09;;;;;;;;;;;27.00;35.00;;;;;;5069671;28;20002;-70
2022/05/05 17:32:36;;;;;;;;;;;27.00;35.10;;;;;;5068149;28;20110;-71
2022/05/05 17:35:03;;;;;;;;;;;26.90;35.10;;;;;;5068640;28;20414;-71
2022/05/05 17:37:30;;;;;;;;;;;26.90;35.20;;;;;;5067501;28;19970;-71
2022/05/05 17:39:57;;;;;;;;;;;26.90;35.20;;;;;;5067312;28;19924;-70
2022/05/05 17:42:25;;;;;;;;;;;26.90;35.30;;;;;;5066325;28;19932;-71
2022/05/05 17:50:36;;;;;;;;;;;26.80;35.40;;;;;;5067835;28;19924;-71
2022/05/05 17:53:04;;;;;;;;;;;26.80;35.50;;;;;;5068734;28;19931;-71
2022/05/05 17:55:32;;;;;;;;;;;26.80;35.50;;;;;;5066843;28;19986;-70
2022/05/05 17:57:59;;;;;;;;;;;26.70;35.50;;;;;;5068317;28;19974;-71
2022/05/05 18:00:27;;;;;;;;;;;26.70;35.50;;;;;;5066853;28;20273;-70
2022/05/05 18:02:54;;;;;;;;;;;26.70;35.60;;;;;;5068204;28;19932;-71
2022/05/05 18:05:22;;;;;;;;;;;26.70;35.60;;;;;;5068523;28;20435;-70
2022/05/05 18:07:50;;;;;;;;;;;26.70;35.60;;;;;;5069695;28;19977;-71
2022/05/05 18:10:17;;;;;;;;;;;26.60;35.50;;;;;;5072143;28;19925;-71
2022/05/05 18:12:46;;;;;;;;;;;26.60;35.50;;;;;;5072054;28;19939;-71
2022/05/05 18:15:16;;;;;;;;;;;26.60;35.60;;;;;;5071668;28;20178;-70
2022/05/05 18:17:43;;;;;;;;;;;26.60;35.60;;;;;;5064298;28;19931;-70
2022/05/05 18:20:10;;;;;;;;;;;26.60;35.60;;;;;;5072168;28;19928;-71
2022/05/05 18:22:37;;;;;;;;;;;26.60;35.60;;;;;;5071771;28;19928;-71
2022/05/05 18:25:05;;;;;;;;;;;26.50;35.60;;;;;;5067549;28;19936;-71
2022/05/05 18:27:34;;;;;;;;;;;26.50;35.60;;;;;;5071241;28;20467;-71
2022/05/05 18:30:03;;;;;;;;;;;26.50;35.70;;;;;;5071891;28;19924;-71
2022/05/05 18:32:30;;;;;;;;;;;26.50;35.70;;;;;;5070993;28;19932;-71
2022/05/05 18:34:57;;;;;;;;;;;26.50;35.70;;;;;;5071511;28;20385;-71